Airfield :
LOGIN :

Register | Disclaimer

   EN    FR    IT 

 










Legend :    VFR   Marginal VFR   IFR   Intensive IFR   Very Intensive IFR
Visi :
Ceiling :
>= 8 km
>= 3000ft
5 to 8 km
1000 to 3000 ft
1500m to 5 km
500 to 1000 ft
800 to 1500m
200 to 500 ft
< 800m
< 200 ft
Symbols :   Thunderstorms  Fog  Heavy snow  Heavy precipitations  Wind > 20 kt
SIGMETs :     Misc.  Thunderstorms  Icing  Turbulence  Mountain Waves  Volcanic Ashes






- Airport Elevation : 39 ft
- IATA code : ANR


EBAW - Anvers / Antwerpen Deurne

CURRENT METAR :
  • 040120Z AUTO 13013KT 9999 -RA FEW017/// BKN027/// BKN031/// 06/04 Q0978

EXPIRED METARs :
  • 040050Z AUTO 13014KT 9999 -SHRA FEW029/// 06/04 Q0979
  • 040020Z AUTO 14013KT 9999 -SHRA FEW026/// OVC031/// 06/04 Q0979
  • 032350Z AUTO 13013KT 9999 -RA SCT014/// SCT017/// OVC024/// 06/04 Q0980
  • 032320Z AUTO 13011KT 9999 -RA FEW012/// SCT014/// BKN025/// 06/04 Q0981
  • 032250Z AUTO 14011KT 9999 -DZ FEW010/// SCT018/// OVC024/// 06/04 Q0981

TAF TAF EBAW
Valid from the 04 at 00:00 until the 04 at 09:00 UTC


032300Z 0400/0409 16015G25KT 9000 -RA SCT014 BKN020
PROB30
TEMPO 0400/0403 4500 RA BKN014
TEMPO 0404/0408 18018G34KT
PROB30
TEMPO 0405/0409 4000 SHRA



MET'MAP, your aeronautical weather chart ! - Copyright ORBIFLY December 2007 - Disclaimer

ORBIFLY MET'MAP TEAM :

Programming & Development : Alexandra Zaïnal
Concept & original design : Baudouin d'Aumeries
Assistance for programming : Marc-Olivier Méhu
Technical & hardware support : Manuel Goepfert

Contact : metmap@orbifly.com




SOURCES & CREDITS :

   NOAA